Iola, Kansas
Current Conditions -  °F | °C
As of 11:01 AM on Monday 22 Dec 2014 (Local Time) from KCNU Reporting Station
Light Rain Light Rain  
Wind Chill: 43°   Ceiling: 400
Heat Index: 47°   Visibility: 2.5mi
Dew Point: 46°   Wind: 9mph
Humidity: 97%   Direction: 200°SSW
Pressure: 29.56"   Gusts: NA
Location:  37.92°N, 95.41°W
Report Text: KCNU 221701Z AUTO 20008KT 2 1/2SM -RA BR OVC004 08/08 A2956 RMK AO2 P0000 T00830078
Loading
Personal Weather Stations






























Interactive Weather Map New forecast layout! Learn more

10-Day Weather Forecast

Advertisements
Track Severe Weather on mobile